Time;durP1;ratioP1;P1;durP2;ratioP2;P2;SDS_P1;SDS_P2;PMS_P1;PMS_P2;Temp;Humidity;BMP_temperature;BMP_pressure;BME280_temperature;BME280_humidity;BME280_pressure;Samples;Min_cycle;Max_cycle;Signal;HPM_P1;HPM_P2
2022/03/05 00:00:30;;;;;;;12.35;5.78;;;;;;;;;;4981715;28;20070;-85
2022/03/05 00:02:57;;;;;;;19.40;6.00;;;;;;;;;;4961715;28;20042;-86
2022/03/05 00:05:23;;;;;;;14.68;5.70;;;;;;;;;;4964132;28;20049;-85
2022/03/05 00:08:03;;;;;;;13.93;6.35;;;;;;;;;;4959859;28;20026;-85
2022/03/05 00:10:29;;;;;;;19.48;6.80;;;;;;;;;;4977320;28;20102;-85
2022/03/05 00:12:55;;;;;;;14.68;5.38;;;;;;;;;;4959811;28;20038;-85
2022/03/05 00:15:21;;;;;;;14.45;6.22;;;;;;;;;;4959881;28;20038;-85
2022/03/05 00:17:47;;;;;;;13.23;6.68;;;;;;;;;;4980088;28;20652;-85
2022/03/05 00:20:14;;;;;;;16.40;6.93;;;;;;;;;;4976421;28;20040;-85
2022/03/05 00:22:40;;;;;;;13.32;6.32;;;;;;;;;;4982242;28;20014;-85
2022/03/05 00:25:06;;;;;;;16.08;6.80;;;;;;;;;;4978909;28;20300;-85
2022/03/05 00:27:33;;;;;;;13.43;5.32;;;;;;;;;;4975116;28;20026;-85
2022/03/05 00:29:59;;;;;;;15.25;6.18;;;;;;;;;;4975324;28;20033;-85
2022/03/05 00:32:25;;;;;;;17.13;5.90;;;;;;;;;;4953387;28;20038;-85
2022/03/05 00:34:51;;;;;;;12.48;5.80;;;;;;;;;;4957958;28;20041;-85
2022/03/05 00:37:17;;;;;;;12.82;6.15;;;;;;;;;;4954394;28;20031;-85
2022/03/05 00:39:43;;;;;;;14.20;6.22;;;;;;;;;;4955065;28;20093;-85
2022/03/05 00:42:09;;;;;;;15.70;5.40;;;;;;;;;;4975860;28;20483;-85
2022/03/05 00:44:36;;;;;;;13.93;6.45;;;;;;;;;;4959681;28;20382;-84
2022/03/05 00:47:02;;;;;;;14.13;6.15;;;;;;;;;;4976496;28;20030;-85
2022/03/05 00:49:28;;;;;;;14.27;5.90;;;;;;;;;;4965641;28;20041;-86
2022/03/05 00:51:54;;;;;;;19.10;6.68;;;;;;;;;;4977077;28;20031;-86
2022/03/05 00:54:20;;;;;;;18.45;6.72;;;;;;;;;;4962834;28;20502;-85
2022/03/05 00:56:47;;;;;;;14.15;6.47;;;;;;;;;;4973255;28;20065;-85
2022/03/05 00:59:13;;;;;;;15.55;6.63;;;;;;;;;;4953541;28;20018;-85
2022/03/05 01:01:39;;;;;;;22.85;6.72;;;;;;;;;;4966340;28;20517;-86
2022/03/05 01:04:06;;;;;;;32.55;6.85;;;;;;;;;;4954833;28;20031;-85
2022/03/05 01:06:32;;;;;;;16.65;6.75;;;;;;;;;;4976108;28;20517;-84
2022/03/05 01:09:02;;;;;;;16.20;6.10;;;;;;;;;;4959250;28;20086;-86
2022/03/05 01:11:28;;;;;;;13.88;6.45;;;;;;;;;;4954615;28;20100;-84
2022/03/05 01:13:54;;;;;;;17.55;6.18;;;;;;;;;;4974207;28;20060;-85
2022/03/05 01:16:20;;;;;;;12.80;6.65;;;;;;;;;;4975570;28;20080;-85
2022/03/05 01:18:46;;;;;;;13.45;6.13;;;;;;;;;;4962790;28;20034;-86
2022/03/05 01:21:12;;;;;;;15.65;6.68;;;;;;;;;;4960667;28;20045;-86
2022/03/05 01:23:38;;;;;;;15.25;6.40;;;;;;;;;;4964405;28;20491;-85
2022/03/05 01:26:04;;;;;;;14.48;6.22;;;;;;;;;;4958138;28;20044;-86
2022/03/05 01:28:30;;;;;;;19.83;7.18;;;;;;;;;;4958458;28;20610;-85
2022/03/05 01:30:56;;;;;;;18.75;6.90;;;;;;;;;;4974280;28;20137;-85
2022/03/05 01:33:23;;;;;;;13.63;6.55;;;;;;;;;;4957839;28;20069;-84
2022/03/05 01:35:49;;;;;;;18.23;7.13;;;;;;;;;;4974080;28;20450;-86
2022/03/05 01:38:16;;;;;;;14.88;6.43;;;;;;;;;;4959829;28;20053;-85
2022/03/05 01:40:42;;;;;;;17.60;6.18;;;;;;;;;;4975395;28;20039;-86
2022/03/05 01:43:08;;;;;;;15.82;6.30;;;;;;;;;;4952860;28;20230;-85
2022/03/05 01:45:35;;;;;;;13.68;6.53;;;;;;;;;;4973067;28;20607;-85
2022/03/05 01:48:02;;;;;;;13.90;6.57;;;;;;;;;;4965672;28;20023;-86
2022/03/05 01:50:28;;;;;;;16.25;6.35;;;;;;;;;;4957724;28;20038;-85
2022/03/05 01:52:54;;;;;;;14.85;6.55;;;;;;;;;;4969792;28;20510;-85
2022/03/05 01:55:21;;;;;;;19.63;6.50;;;;;;;;;;4968694;28;20498;-85
2022/03/05 01:57:47;;;;;;;14.70;7.28;;;;;;;;;;4955963;28;20054;-85
2022/03/05 02:00:14;;;;;;;16.52;7.05;;;;;;;;;;4955745;28;20126;-85
2022/03/05 02:02:40;;;;;;;20.77;7.25;;;;;;;;;;4957438;28;20727;-85
2022/03/05 02:05:06;;;;;;;14.90;6.90;;;;;;;;;;4954554;28;20482;-85
2022/03/05 02:07:33;;;;;;;26.80;8.10;;;;;;;;;;4960802;28;20486;-85
2022/03/05 02:09:59;;;;;;;16.73;6.95;;;;;;;;;;4959603;28;20026;-86
2022/03/05 02:12:29;;;;;;;19.10;6.45;;;;;;;;;;4958726;28;20034;-85
2022/03/05 02:14:55;;;;;;;13.85;6.13;;;;;;;;;;4953908;28;20504;-85
2022/03/05 02:17:21;;;;;;;18.52;6.70;;;;;;;;;;4959997;28;20022;-85
2022/03/05 02:19:47;;;;;;;13.57;7.13;;;;;;;;;;4953743;28;20139;-86
2022/03/05 02:22:13;;;;;;;19.80;8.35;;;;;;;;;;4968041;28;20047;-86
2022/03/05 02:24:40;;;;;;;16.08;7.00;;;;;;;;;;4972073;28;20035;-84
2022/03/05 02:27:06;;;;;;;19.23;7.53;;;;;;;;;;4954036;28;20039;-85
2022/03/05 02:29:33;;;;;;;17.25;8.15;;;;;;;;;;4953083;28;20031;-86
2022/03/05 02:32:00;;;;;;;14.63;6.40;;;;;;;;;;4958984;28;20480;-85
2022/03/05 02:34:26;;;;;;;17.33;7.00;;;;;;;;;;4971845;28;20455;-85
2022/03/05 02:36:52;;;;;;;15.30;6.72;;;;;;;;;;4959295;28;20054;-85
2022/03/05 02:39:18;;;;;;;15.95;7.28;;;;;;;;;;4977824;28;20641;-85
2022/03/05 02:41:44;;;;;;;20.23;7.05;;;;;;;;;;4958115;28;20169;-86
2022/03/05 02:44:11;;;;;;;15.23;7.03;;;;;;;;;;4974187;28;20121;-85
2022/03/05 02:46:37;;;;;;;20.77;7.78;;;;;;;;;;4959099;28;20043;-85
2022/03/05 02:49:03;;;;;;;13.23;7.15;;;;;;;;;;4967532;28;23087;-86
2022/03/05 02:51:30;;;;;;;21.40;8.65;;;;;;;;;;4961368;28;20038;-85
2022/03/05 02:53:56;;;;;;;17.45;7.68;;;;;;;;;;4974654;28;20133;-86
2022/03/05 02:56:22;;;;;;;18.10;7.63;;;;;;;;;;4976736;28;20134;-84
2022/03/05 02:58:48;;;;;;;16.25;7.18;;;;;;;;;;4961648;28;20046;-85
2022/03/05 03:01:14;;;;;;;17.88;7.47;;;;;;;;;;4975422;28;20126;-85
2022/03/05 03:03:41;;;;;;;21.00;7.60;;;;;;;;;;4977606;28;20743;-85
2022/03/05 03:06:07;;;;;;;16.92;6.78;;;;;;;;;;4961879;28;20471;-86
2022/03/05 03:08:33;;;;;;;15.00;6.90;;;;;;;;;;4958857;28;20447;-85
2022/03/05 03:11:00;;;;;;;20.70;7.18;;;;;;;;;;4961777;28;20038;-86
2022/03/05 03:13:26;;;;;;;14.88;7.05;;;;;;;;;;4962701;28;20058;-85
2022/03/05 03:15:52;;;;;;;19.13;6.90;;;;;;;;;;4963496;28;20050;-86
2022/03/05 03:18:18;;;;;;;12.75;6.13;;;;;;;;;;4955737;28;20031;-84
2022/03/05 03:20:44;;;;;;;15.95;7.10;;;;;;;;;;4959957;28;20114;-85
2022/03/05 03:23:10;;;;;;;18.58;7.28;;;;;;;;;;4966050;28;20027;-85
2022/03/05 03:25:39;;;;;;;17.65;6.68;;;;;;;;;;4960494;28;20039;-85
2022/03/05 03:28:05;;;;;;;14.52;7.05;;;;;;;;;;4960575;28;20082;-85
2022/03/05 03:30:31;;;;;;;12.45;6.38;;;;;;;;;;4960725;28;20092;-85
2022/03/05 03:32:58;;;;;;;19.60;7.10;;;;;;;;;;4960815;28;20031;-86
2022/03/05 03:35:24;;;;;;;15.82;6.80;;;;;;;;;;4959424;28;20034;-85
2022/03/05 03:37:50;;;;;;;12.57;6.18;;;;;;;;;;4966468;28;20322;-84
2022/03/05 03:40:17;;;;;;;12.73;6.45;;;;;;;;;;4958663;28;20066;-86
2022/03/05 03:42:44;;;;;;;20.20;6.07;;;;;;;;;;4968446;28;20726;-85
2022/03/05 03:45:10;;;;;;;14.52;5.95;;;;;;;;;;4978964;28;20426;-86
2022/03/05 03:47:37;;;;;;;15.10;6.70;;;;;;;;;;4966122;28;20535;-85
2022/03/05 03:50:03;;;;;;;18.63;7.47;;;;;;;;;;4963583;28;20092;-85
2022/03/05 03:52:29;;;;;;;14.88;6.55;;;;;;;;;;4962692;28;20603;-85
2022/03/05 03:54:56;;;;;;;14.65;5.88;;;;;;;;;;4966867;28;20116;-85
2022/03/05 03:57:22;;;;;;;22.52;6.63;;;;;;;;;;4959746;28;20034;-85
2022/03/05 03:59:51;;;;;;;13.98;6.47;;;;;;;;;;4966311;28;20038;-85
2022/03/05 04:02:17;;;;;;;13.43;5.93;;;;;;;;;;4965151;28;20038;-85
2022/03/05 04:04:43;;;;;;;12.02;5.68;;;;;;;;;;4961923;28;20126;-84
2022/03/05 04:09:55;;;;;;;15.73;6.07;;;;;;;;;;4981867;28;20057;-86
2022/03/05 04:12:21;;;;;;;12.95;5.82;;;;;;;;;;4960309;28;20026;-86
2022/03/05 04:14:48;;;;;;;15.75;6.05;;;;;;;;;;4980822;28;20031;-85
2022/03/05 04:17:14;;;;;;;13.43;6.07;;;;;;;;;;4964375;28;20121;-84
2022/03/05 04:19:40;;;;;;;14.88;6.18;;;;;;;;;;4964116;28;20407;-85
2022/03/05 04:22:06;;;;;;;11.65;5.53;;;;;;;;;;4964606;28;20397;-85
2022/03/05 04:24:32;;;;;;;11.45;5.70;;;;;;;;;;4962266;28;20038;-85
2022/03/05 04:26:58;;;;;;;19.38;6.63;;;;;;;;;;4949853;28;20125;-86
2022/03/05 04:29:24;;;;;;;15.63;5.53;;;;;;;;;;4964326;28;20501;-85
2022/03/05 04:31:50;;;;;;;15.45;5.45;;;;;;;;;;4976112;28;20038;-85
2022/03/05 04:34:16;;;;;;;12.88;5.93;;;;;;;;;;4955721;28;20043;-86
2022/03/05 04:36:42;;;;;;;9.70;5.00;;;;;;;;;;4954027;28;20050;-85
2022/03/05 04:39:09;;;;;;;13.63;5.68;;;;;;;;;;4979507;28;20456;-85
2022/03/05 04:41:35;;;;;;;11.05;5.25;;;;;;;;;;4974652;28;20046;-87
2022/03/05 04:44:01;;;;;;;11.82;5.18;;;;;;;;;;4949579;28;20026;-86
2022/03/05 04:46:27;;;;;;;15.00;5.57;;;;;;;;;;4950863;28;20054;-85
2022/03/05 04:48:53;;;;;;;14.57;5.20;;;;;;;;;;4952621;28;20030;-85
2022/03/05 04:51:19;;;;;;;11.20;5.32;;;;;;;;;;4960054;28;20034;-85
2022/03/05 04:53:45;;;;;;;11.23;5.72;;;;;;;;;;4964450;28;20508;-86
2022/03/05 04:56:11;;;;;;;18.60;7.03;;;;;;;;;;4977989;28;20105;-86
2022/03/05 04:58:37;;;;;;;13.00;5.55;;;;;;;;;;4958229;28;20093;-85
2022/03/05 05:01:03;;;;;;;13.70;6.20;;;;;;;;;;4965365;28;20069;-85
2022/03/05 05:03:30;;;;;;;10.88;4.80;;;;;;;;;;4960366;28;20058;-85
2022/03/05 05:05:56;;;;;;;15.07;6.00;;;;;;;;;;4980306;28;20066;-84
2022/03/05 05:08:22;;;;;;;14.63;4.07;;;;;;;;;;4975802;28;20021;-86
2022/03/05 05:10:49;;;;;;;12.88;5.03;;;;;;;;;;4977108;28;20565;-85
2022/03/05 05:13:15;;;;;;;11.52;5.15;;;;;;;;;;4955142;28;20058;-84
2022/03/05 05:15:47;;;;;;;11.20;4.45;;;;;;;;;;4966758;28;20057;-85
2022/03/05 05:18:13;;;;;;;12.98;5.50;;;;;;;;;;4958628;28;20443;-85
2022/03/05 05:20:39;;;;;;;12.43;5.75;;;;;;;;;;4979097;28;20482;-85
2022/03/05 05:23:05;;;;;;;11.32;6.07;;;;;;;;;;4963116;28;20061;-84
2022/03/05 05:25:31;;;;;;;11.65;4.88;;;;;;;;;;4958037;28;20085;-85
2022/03/05 05:27:58;;;;;;;12.60;5.55;;;;;;;;;;4977117;28;20865;-84
2022/03/05 05:30:24;;;;;;;13.95;4.82;;;;;;;;;;4964762;28;20030;-84
2022/03/05 05:32:50;;;;;;;12.52;4.40;;;;;;;;;;4980539;28;20037;-84
2022/03/05 05:35:16;;;;;;;13.07;5.28;;;;;;;;;;4956326;28;20050;-85
2022/03/05 05:37:42;;;;;;;14.07;6.50;;;;;;;;;;4961524;28;20757;-85
2022/03/05 05:40:09;;;;;;;13.00;5.18;;;;;;;;;;4958168;28;20031;-84
2022/03/05 05:42:35;;;;;;;9.80;4.82;;;;;;;;;;4958402;28;20033;-84
2022/03/05 05:45:01;;;;;;;10.45;5.50;;;;;;;;;;4962427;28;20023;-83
2022/03/05 05:47:27;;;;;;;12.98;5.95;;;;;;;;;;4959997;28;20051;-85
2022/03/05 05:49:53;;;;;;;10.65;5.30;;;;;;;;;;4959005;28;20039;-84
2022/03/05 05:52:19;;;;;;;14.35;5.72;;;;;;;;;;4970368;28;20117;-86
2022/03/05 05:54:46;;;;;;;17.83;6.65;;;;;;;;;;4959915;28;20037;-85
2022/03/05 05:57:12;;;;;;;14.20;6.22;;;;;;;;;;4959597;28;20050;-84
2022/03/05 05:59:38;;;;;;;17.67;6.95;;;;;;;;;;4971551;28;20035;-84
2022/03/05 06:02:04;;;;;;;8.35;4.72;;;;;;;;;;4956434;28;20105;-85
2022/03/05 06:04:31;;;;;;;15.20;6.13;;;;;;;;;;4955812;28;20121;-84
2022/03/05 06:06:58;;;;;;;11.00;4.95;;;;;;;;;;4972538;28;20019;-84
2022/03/05 06:09:30;;;;;;;20.23;6.45;;;;;;;;;;4958609;28;20034;-84
2022/03/05 06:11:56;;;;;;;10.82;5.78;;;;;;;;;;4957349;28;20047;-86
2022/03/05 06:14:23;;;;;;;14.65;5.90;;;;;;;;;;4959169;28;20058;-86
2022/03/05 06:16:49;;;;;;;12.10;5.32;;;;;;;;;;4969913;28;20525;-84
2022/03/05 06:19:15;;;;;;;11.20;5.97;;;;;;;;;;4961122;28;20034;-85
2022/03/05 06:21:41;;;;;;;11.13;5.90;;;;;;;;;;4957040;28;20620;-86
2022/03/05 06:24:10;;;;;;;14.27;6.18;;;;;;;;;;4964093;28;20027;-84
2022/03/05 06:26:36;;;;;;;14.43;5.82;;;;;;;;;;4955836;28;20026;-85
2022/03/05 06:29:02;;;;;;;12.35;4.78;;;;;;;;;;4964829;28;20534;-85
2022/03/05 06:31:28;;;;;;;15.90;6.55;;;;;;;;;;4962203;28;20479;-85
2022/03/05 06:33:54;;;;;;;16.63;6.30;;;;;;;;;;4963111;28;20556;-84
2022/03/05 06:36:26;;;;;;;14.55;5.32;;;;;;;;;;4978173;28;20057;-84
2022/03/05 06:38:59;;;;;;;12.10;6.40;;;;;;;;;;4963445;28;20031;-85
2022/03/05 06:41:25;;;;;;;13.32;6.53;;;;;;;;;;4975063;28;20105;-85
2022/03/05 06:43:51;;;;;;;16.15;6.53;;;;;;;;;;4962537;28;20100;-84
2022/03/05 06:46:18;;;;;;;14.05;6.60;;;;;;;;;;4961947;28;20029;-88
2022/03/05 06:48:46;;;;;;;16.42;6.70;;;;;;;;;;4958085;28;20031;-84
2022/03/05 06:51:13;;;;;;;15.57;6.38;;;;;;;;;;4960300;28;20042;-85
2022/03/05 06:53:39;;;;;;;17.88;6.32;;;;;;;;;;4963676;28;20038;-83
2022/03/05 06:56:05;;;;;;;13.27;6.57;;;;;;;;;;4962238;28;20039;-83
2022/03/05 06:58:31;;;;;;;12.82;6.03;;;;;;;;;;4962495;28;20046;-87
2022/03/05 07:00:57;;;;;;;12.70;5.72;;;;;;;;;;4977056;28;20531;-84
2022/03/05 07:03:23;;;;;;;15.32;6.20;;;;;;;;;;4964001;28;20031;-85
2022/03/05 07:05:49;;;;;;;13.55;6.65;;;;;;;;;;4976032;28;20055;-85
2022/03/05 07:08:15;;;;;;;15.55;6.15;;;;;;;;;;4960732;28;20053;-85
2022/03/05 07:10:41;;;;;;;14.45;5.88;;;;;;;;;;4965407;28;20069;-86
2022/03/05 07:13:07;;;;;;;15.80;6.45;;;;;;;;;;4959751;28;20031;-86
2022/03/05 07:15:33;;;;;;;12.40;6.18;;;;;;;;;;4980944;28;20023;-86
2022/03/05 07:17:59;;;;;;;13.27;6.28;;;;;;;;;;4977393;28;20476;-84
2022/03/05 07:20:25;;;;;;;14.55;5.97;;;;;;;;;;4960095;28;20272;-86
2022/03/05 07:22:52;;;;;;;12.63;5.72;;;;;;;;;;4962420;28;20046;-86
2022/03/05 07:25:18;;;;;;;15.45;6.15;;;;;;;;;;4959438;28;20034;-85
2022/03/05 07:27:44;;;;;;;15.82;5.30;;;;;;;;;;4980118;28;20495;-86
2022/03/05 07:30:11;;;;;;;12.80;6.22;;;;;;;;;;4965495;28;20035;-86
2022/03/05 07:32:37;;;;;;;13.20;5.45;;;;;;;;;;4962518;28;20035;-85
2022/03/05 07:35:04;;;;;;;18.15;5.72;;;;;;;;;;4960015;28;20105;-86
2022/03/05 07:37:31;;;;;;;15.77;5.95;;;;;;;;;;4959781;28;20050;-85
2022/03/05 07:39:57;;;;;;;15.70;7.18;;;;;;;;;;4963801;28;20506;-84
2022/03/05 07:42:23;;;;;;;15.63;6.03;;;;;;;;;;4962858;28;20153;-84
2022/03/05 07:44:49;;;;;;;15.25;6.53;;;;;;;;;;4959220;28;20026;-86
2022/03/05 07:47:16;;;;;;;13.25;6.80;;;;;;;;;;4959888;28;20039;-85
2022/03/05 07:49:42;;;;;;;17.60;6.78;;;;;;;;;;4962717;28;20423;-85
2022/03/05 07:52:08;;;;;;;12.18;6.50;;;;;;;;;;4957725;28;20037;-86
2022/03/05 07:54:34;;;;;;;10.60;5.32;;;;;;;;;;4976332;28;20416;-86
2022/03/05 07:57:00;;;;;;;12.10;6.20;;;;;;;;;;4950017;28;20035;-85
2022/03/05 07:59:26;;;;;;;13.38;5.95;;;;;;;;;;4980281;28;20637;-85
2022/03/05 08:01:52;;;;;;;12.00;5.95;;;;;;;;;;4957773;28;20411;-86
2022/03/05 08:04:18;;;;;;;12.68;6.47;;;;;;;;;;4975529;28;20035;-85
2022/03/05 08:06:44;;;;;;;10.38;5.45;;;;;;;;;;4960725;28;20091;-85
2022/03/05 08:09:11;;;;;;;15.95;6.78;;;;;;;;;;4959774;28;20097;-86
2022/03/05 08:11:37;;;;;;;12.93;6.53;;;;;;;;;;4961613;28;20031;-85
2022/03/05 08:14:03;;;;;;;18.52;6.30;;;;;;;;;;4950355;28;20586;-85
2022/03/05 08:16:31;;;;;;;11.90;5.60;;;;;;;;;;4967302;28;20518;-85
2022/03/05 08:18:57;;;;;;;11.50;5.80;;;;;;;;;;4962400;28;20070;-85
2022/03/05 08:21:26;;;;;;;11.68;6.03;;;;;;;;;;4961680;28;20045;-86
2022/03/05 08:23:52;;;;;;;14.50;6.15;;;;;;;;;;4960402;28;20114;-85
2022/03/05 08:26:18;;;;;;;11.20;5.65;;;;;;;;;;4962304;28;20026;-84
2022/03/05 08:28:45;;;;;;;13.35;6.30;;;;;;;;;;4976186;28;20031;-84
2022/03/05 08:31:12;;;;;;;12.95;6.05;;;;;;;;;;4964639;28;20594;-86
2022/03/05 08:33:38;;;;;;;10.35;5.85;;;;;;;;;;4960018;28;20475;-85
2022/03/05 08:36:04;;;;;;;10.20;5.78;;;;;;;;;;4979073;28;20026;-85
2022/03/05 08:38:31;;;;;;;14.85;6.55;;;;;;;;;;4982089;28;20042;-86
2022/03/05 08:40:59;;;;;;;11.65;6.35;;;;;;;;;;4957092;28;20034;-85
2022/03/05 08:43:25;;;;;;;10.45;6.38;;;;;;;;;;4979422;28;20395;-86
2022/03/05 08:45:51;;;;;;;13.50;6.70;;;;;;;;;;4980852;28;20026;-85
2022/03/05 08:48:18;;;;;;;15.60;7.20;;;;;;;;;;4966834;28;20471;-86
2022/03/05 08:50:44;;;;;;;14.05;6.70;;;;;;;;;;4981306;28;20042;-86
2022/03/05 08:53:10;;;;;;;16.02;6.72;;;;;;;;;;4964805;28;20113;-84
2022/03/05 08:55:36;;;;;;;12.25;6.28;;;;;;;;;;4962018;28;20041;-86
2022/03/05 08:58:02;;;;;;;19.17;6.88;;;;;;;;;;4978176;28;20046;-86
2022/03/05 09:00:28;;;;;;;14.60;6.75;;;;;;;;;;4964137;28;20089;-87
2022/03/05 09:02:54;;;;;;;11.77;7.00;;;;;;;;;;4961035;28;20034;-86
2022/03/05 09:05:20;;;;;;;12.15;6.45;;;;;;;;;;4977804;28;20030;-84
2022/03/05 09:07:47;;;;;;;14.35;6.45;;;;;;;;;;4959492;28;20023;-86
2022/03/05 09:10:13;;;;;;;13.65;7.28;;;;;;;;;;4960330;28;20027;-86
2022/03/05 09:12:39;;;;;;;12.75;7.00;;;;;;;;;;4964080;28;20839;-85
2022/03/05 09:15:06;;;;;;;12.48;6.57;;;;;;;;;;4963961;28;20467;-87
2022/03/05 09:17:52;;;;;;;12.65;6.72;;;;;;;;;;4750445;27;8240407;-81
2022/03/05 09:20:18;;;;;;;14.77;7.70;;;;;;;;;;5004734;28;20029;-81
2022/03/05 09:22:44;;;;;;;17.15;7.43;;;;;;;;;;5027068;28;20468;-80
2022/03/05 09:25:11;;;;;;;15.20;7.30;;;;;;;;;;5011516;28;20029;-81
2022/03/05 09:27:38;;;;;;;16.33;7.32;;;;;;;;;;5025657;28;20526;-81
2022/03/05 09:30:04;;;;;;;16.77;7.50;;;;;;;;;;5041498;28;20047;-80
2022/03/05 09:32:31;;;;;;;12.13;6.10;;;;;;;;;;5026759;28;20108;-81
2022/03/05 09:34:59;;;;;;;14.10;7.55;;;;;;;;;;5008687;28;20087;-81
2022/03/05 09:37:26;;;;;;;14.75;8.32;;;;;;;;;;4990741;28;20033;-81
2022/03/05 09:39:52;;;;;;;17.30;9.07;;;;;;;;;;5010092;28;20034;-81
2022/03/05 09:42:18;;;;;;;15.70;7.88;;;;;;;;;;4987430;28;20182;-81
2022/03/05 09:44:44;;;;;;;16.65;7.50;;;;;;;;;;4995030;28;20063;-81
2022/03/05 09:47:11;;;;;;;15.27;7.72;;;;;;;;;;4993277;28;20040;-81
2022/03/05 09:49:38;;;;;;;16.65;8.68;;;;;;;;;;4994131;28;20547;-81
2022/03/05 09:52:05;;;;;;;16.90;8.88;;;;;;;;;;4990456;28;20459;-82
2022/03/05 09:54:31;;;;;;;16.17;8.27;;;;;;;;;;4999464;28;20037;-82
2022/03/05 09:56:57;;;;;;;14.38;7.47;;;;;;;;;;4990265;28;20432;-81
2022/03/05 09:59:23;;;;;;;21.75;8.80;;;;;;;;;;5010157;28;20025;-81
2022/03/05 10:01:50;;;;;;;15.38;7.82;;;;;;;;;;5010286;28;20018;-81
2022/03/05 10:04:20;;;;;;;15.98;7.80;;;;;;;;;;5001217;28;20041;-81
2022/03/05 10:07:05;;;;;;;17.58;7.82;;;;;;;;;;4995593;28;20508;-81
2022/03/05 10:09:31;;;;;;;16.77;8.38;;;;;;;;;;4994490;28;20469;-81
2022/03/05 10:11:57;;;;;;;17.00;8.95;;;;;;;;;;5013563;28;20116;-82
2022/03/05 10:14:23;;;;;;;20.58;10.35;;;;;;;;;;4994009;28;20437;-81
2022/03/05 10:16:49;;;;;;;15.50;8.45;;;;;;;;;;4996740;28;20073;-81
2022/03/05 10:19:15;;;;;;;13.05;7.22;;;;;;;;;;4993068;28;20586;-81
2022/03/05 10:21:54;;;;;;;17.15;7.85;;;;;;;;;;4990938;28;20081;-82
2022/03/05 10:24:29;;;;;;;16.75;7.82;;;;;;;;;;4995254;28;20433;-81
2022/03/05 10:26:56;;;;;;;13.27;7.53;;;;;;;;;;5011486;28;20127;-81
2022/03/05 10:29:23;;;;;;;15.98;7.72;;;;;;;;;;4983758;28;20033;-81
2022/03/05 10:32:05;;;;;;;16.80;8.13;;;;;;;;;;4976031;28;20477;-81
2022/03/05 10:34:44;;;;;;;19.90;9.38;;;;;;;;;;4997234;28;20489;-81
2022/03/05 10:37:11;;;;;;;20.92;9.05;;;;;;;;;;4980435;28;20628;-81
2022/03/05 10:39:37;;;;;;;16.95;9.38;;;;;;;;;;4997938;28;20038;-82
2022/03/05 10:42:15;;;;;;;16.65;8.23;;;;;;;;;;5002970;28;20061;-81
2022/03/05 10:44:41;;;;;;;15.77;8.95;;;;;;;;;;4993142;28;20061;-81
2022/03/05 10:47:07;;;;;;;17.42;9.35;;;;;;;;;;4980780;28;20033;-82
2022/03/05 10:49:37;;;;;;;17.33;8.55;;;;;;;;;;4978545;28;20397;-82
2022/03/05 10:52:06;;;;;;;18.33;8.32;;;;;;;;;;4998332;28;20041;-81
2022/03/05 10:54:37;;;;;;;17.80;9.32;;;;;;;;;;4979160;28;20072;-82
2022/03/05 10:57:21;;;;;;;19.23;8.93;;;;;;;;;;4996074;28;20076;-82
2022/03/05 11:00:05;;;;;;;15.85;8.40;;;;;;;;;;4985965;28;20021;-81
2022/03/05 11:02:32;;;;;;;16.65;8.27;;;;;;;;;;4994096;28;20034;-82
2022/03/05 11:04:58;;;;;;;18.23;8.38;;;;;;;;;;4977686;28;20037;-82
2022/03/05 11:07:24;;;;;;;19.85;9.00;;;;;;;;;;4996217;28;20029;-82
2022/03/05 11:09:54;;;;;;;17.95;9.02;;;;;;;;;;4993337;28;20038;-81
2022/03/05 11:12:21;;;;;;;19.05;9.13;;;;;;;;;;4978064;28;20038;-81
2022/03/05 11:14:47;;;;;;;14.90;8.32;;;;;;;;;;4973000;28;20474;-81
2022/03/05 11:17:14;;;;;;;17.60;9.25;;;;;;;;;;4994606;28;20045;-82
2022/03/05 11:19:40;;;;;;;18.10;8.55;;;;;;;;;;4973135;28;20048;-81
2022/03/05 11:22:08;;;;;;;22.65;8.82;;;;;;;;;;4987781;28;20045;-82
2022/03/05 11:24:34;;;;;;;21.85;10.32;;;;;;;;;;4992713;28;20025;-82
2022/03/05 11:27:00;;;;;;;16.70;9.32;;;;;;;;;;4978256;28;20058;-83
2022/03/05 11:29:28;;;;;;;28.08;10.48;;;;;;;;;;4987527;28;20121;-83
2022/03/05 11:32:09;;;;;;;16.30;10.18;;;;;;;;;;4994791;28;20097;-83
2022/03/05 11:34:43;;;;;;;19.38;10.45;;;;;;;;;;4986625;28;20040;-84
2022/03/05 11:37:29;;;;;;;20.23;9.77;;;;;;;;;;4988778;28;20477;-83
2022/03/05 11:39:55;;;;;;;17.17;9.65;;;;;;;;;;4968997;28;20437;-83
2022/03/05 11:42:31;;;;;;;19.40;9.82;;;;;;;;;;4991903;28;20026;-83
2022/03/05 11:44:59;;;;;;;16.58;9.02;;;;;;;;;;4979613;28;20042;-83
2022/03/05 11:47:30;;;;;;;19.73;10.05;;;;;;;;;;4987845;28;20034;-83
2022/03/05 11:49:59;;;;;;;22.70;9.57;;;;;;;;;;4975592;28;20042;-83
2022/03/05 11:52:43;;;;;;;16.48;10.50;;;;;;;;;;4990213;28;20504;-83
2022/03/05 11:55:14;;;;;;;18.52;10.48;;;;;;;;;;4967840;28;20446;-83
2022/03/05 11:58:03;;;;;;;17.48;9.43;;;;;;;;;;4977418;28;20084;-83
2022/03/05 12:00:31;;;;;;;17.83;8.95;;;;;;;;;;4990956;28;20053;-83
2022/03/05 12:02:58;;;;;;;19.77;8.95;;;;;;;;;;4999437;28;20029;-83
2022/03/05 12:05:42;;;;;;;16.40;9.07;;;;;;;;;;4992696;28;20092;-83
2022/03/05 12:08:09;;;;;;;17.10;10.02;;;;;;;;;;4990063;28;20030;-83
2022/03/05 12:10:38;;;;;;;24.88;11.02;;;;;;;;;;4976574;28;20041;-83
2022/03/05 12:13:05;;;;;;;17.60;9.98;;;;;;;;;;4978449;28;20064;-83
2022/03/05 12:15:35;;;;;;;18.35;10.15;;;;;;;;;;4970081;28;20034;-82
2022/03/05 12:18:02;;;;;;;16.27;9.25;;;;;;;;;;4969184;28;20073;-83
2022/03/05 12:20:31;;;;;;;15.30;8.73;;;;;;;;;;4966802;28;20271;-83
2022/03/05 12:23:04;;;;;;;24.05;9.35;;;;;;;;;;4971185;28;20051;-83
2022/03/05 12:25:31;;;;;;;15.88;8.70;;;;;;;;;;4996286;28;20037;-83
2022/03/05 12:27:58;;;;;;;17.80;8.77;;;;;;;;;;4990769;28;20371;-83
2022/03/05 12:30:25;;;;;;;17.13;9.68;;;;;;;;;;4991563;28;20518;-83
2022/03/05 12:32:55;;;;;;;15.95;9.48;;;;;;;;;;4974905;28;20033;-83
2022/03/05 12:35:21;;;;;;;20.85;10.15;;;;;;;;;;4983723;28;20038;-83
2022/03/05 12:37:47;;;;;;;17.73;9.68;;;;;;;;;;4980909;28;20058;-83
2022/03/05 12:40:14;;;;;;;18.48;10.25;;;;;;;;;;4993129;28;20040;-82
2022/03/05 12:42:45;;;;;;;18.08;10.43;;;;;;;;;;4980133;28;20030;-84
2022/03/05 12:45:17;;;;;;;18.10;10.32;;;;;;;;;;4989624;28;20469;-84
2022/03/05 12:47:43;;;;;;;19.33;11.52;;;;;;;;;;4996549;28;20026;-83
2022/03/05 12:50:28;;;;;;;21.63;11.88;;;;;;;;;;4975167;28;20147;-84
2022/03/05 12:52:58;;;;;;;28.70;13.95;;;;;;;;;;4981090;28;20033;-84
2022/03/05 12:55:27;;;;;;;20.63;12.40;;;;;;;;;;4979960;28;20345;-84
2022/03/05 12:57:53;;;;;;;19.77;10.48;;;;;;;;;;4980502;28;20044;-83
2022/03/05 13:00:19;;;;;;;18.15;9.85;;;;;;;;;;4991391;28;20033;-83
2022/03/05 13:02:45;;;;;;;16.00;9.10;;;;;;;;;;4994069;28;20440;-83
2022/03/05 13:05:14;;;;;;;18.38;10.07;;;;;;;;;;4992758;28;20892;-83
2022/03/05 13:07:40;;;;;;;25.30;9.40;;;;;;;;;;4973228;28;20030;-83
2022/03/05 13:10:07;;;;;;;18.33;9.95;;;;;;;;;;4978741;28;20045;-83
2022/03/05 13:12:40;;;;;;;22.08;8.98;;;;;;;;;;4994096;28;20038;-83
2022/03/05 13:15:07;;;;;;;17.40;10.07;;;;;;;;;;4986113;28;20575;-83
2022/03/05 13:17:45;;;;;;;19.63;11.13;;;;;;;;;;4974558;28;20347;-83
2022/03/05 13:20:15;;;;;;;16.80;10.70;;;;;;;;;;4989274;28;20515;-83
2022/03/05 13:22:41;;;;;;;15.85;10.00;;;;;;;;;;4979879;28;20033;-83
2022/03/05 13:25:11;;;;;;;20.85;10.90;;;;;;;;;;4990890;28;20041;-83
2022/03/05 13:27:37;;;;;;;18.15;10.68;;;;;;;;;;4974867;28;20524;-83
2022/03/05 13:30:08;;;;;;;18.83;10.32;;;;;;;;;;4977439;28;20104;-83
2022/03/05 13:32:44;;;;;;;16.75;10.35;;;;;;;;;;4976741;28;20030;-83
2022/03/05 13:35:10;;;;;;;16.75;10.15;;;;;;;;;;4978296;28;20037;-83
2022/03/05 13:37:37;;;;;;;16.75;9.55;;;;;;;;;;4983299;28;20092;-83
2022/03/05 13:40:04;;;;;;;16.70;9.52;;;;;;;;;;4996189;28;20128;-84
2022/03/05 13:42:34;;;;;;;20.35;10.77;;;;;;;;;;4999419;28;20436;-83
2022/03/05 13:45:05;;;;;;;19.10;10.13;;;;;;;;;;4976842;28;20801;-83
2022/03/05 13:47:31;;;;;;;21.05;10.07;;;;;;;;;;4992787;28;20042;-83
2022/03/05 13:50:01;;;;;;;20.20;11.60;;;;;;;;;;4981077;28;20065;-83
2022/03/05 13:52:30;;;;;;;17.10;10.05;;;;;;;;;;4991832;28;20034;-83
2022/03/05 13:55:05;;;;;;;21.55;9.88;;;;;;;;;;4975806;28;20049;-83
2022/03/05 13:57:32;;;;;;;18.90;10.93;;;;;;;;;;4977031;28;20041;-83
2022/03/05 14:00:09;;;;;;;20.38;11.35;;;;;;;;;;4982519;28;20116;-83
2022/03/05 14:02:35;;;;;;;24.60;9.82;;;;;;;;;;4993638;28;20067;-83
2022/03/05 14:05:02;;;;;;;19.42;10.48;;;;;;;;;;4981904;28;20037;-83
2022/03/05 14:07:30;;;;;;;18.52;10.73;;;;;;;;;;4994599;28;20045;-83
2022/03/05 14:09:57;;;;;;;21.65;11.07;;;;;;;;;;4994352;28;20057;-83
2022/03/05 14:12:30;;;;;;;20.05;11.25;;;;;;;;;;4976851;28;20057;-83
2022/03/05 14:14:59;;;;;;;18.23;10.18;;;;;;;;;;4985431;28;20663;-84
2022/03/05 14:17:27;;;;;;;18.90;11.30;;;;;;;;;;4997978;28;20318;-84
2022/03/05 14:20:12;;;;;;;18.42;10.88;;;;;;;;;;4980512;28;20112;-83
2022/03/05 14:22:48;;;;;;;20.40;10.80;;;;;;;;;;4997842;28;20028;-83
2022/03/05 14:25:20;;;;;;;21.80;11.40;;;;;;;;;;5001283;28;20101;-83
2022/03/05 14:27:49;;;;;;;20.40;11.90;;;;;;;;;;4982346;28;20030;-84
2022/03/05 14:30:15;;;;;;;23.65;11.00;;;;;;;;;;4980545;28;20030;-83
2022/03/05 14:32:41;;;;;;;20.70;11.30;;;;;;;;;;4982700;28;20026;-83